sensor_id;sensor_type;location;lat;lon;timestamp;temperature;humidity
20911;DHT22;10615;42.702;23.314;2022-07-29T00:00:59;20.20;99.90
20911;DHT22;10615;42.702;23.314;2022-07-29T00:02:00;20.20;99.90
20911;DHT22;10615;42.702;23.314;2022-07-29T00:03:02;20.20;99.90
20911;DHT22;10615;42.702;23.314;2022-07-29T00:04:03;20.20;99.90
20911;DHT22;10615;42.702;23.314;2022-07-29T00:05:04;20.20;99.90
20911;DHT22;10615;42.702;23.314;2022-07-29T00:06:05;20.20;99.90
20911;DHT22;10615;42.702;23.314;2022-07-29T00:07:06;20.20;99.90
20911;DHT22;10615;42.702;23.314;2022-07-29T00:08:08;20.20;99.90
20911;DHT22;10615;42.702;23.314;2022-07-29T00:09:09;20.30;99.90
20911;DHT22;10615;42.702;23.314;2022-07-29T00:10:09;20.30;99.90
20911;DHT22;10615;42.702;23.314;2022-07-29T00:11:10;20.30;99.90
20911;DHT22;10615;42.702;23.314;2022-07-29T00:12:11;20.30;99.90
20911;DHT22;10615;42.702;23.314;2022-07-29T00:13:11;20.40;99.90
20911;DHT22;10615;42.702;23.314;2022-07-29T00:14:12;20.40;99.90
20911;DHT22;10615;42.702;23.314;2022-07-29T00:15:13;20.50;99.90
20911;DHT22;10615;42.702;23.314;2022-07-29T00:16:14;20.50;99.90
20911;DHT22;10615;42.702;23.314;2022-07-29T00:17:15;20.50;99.90
20911;DHT22;10615;42.702;23.314;2022-07-29T00:18:16;20.60;99.90
20911;DHT22;10615;42.702;23.314;2022-07-29T00:19:16;20.60;99.70
20911;DHT22;10615;42.702;23.314;2022-07-29T00:20:17;20.60;99.50
20911;DHT22;10615;42.702;23.314;2022-07-29T00:21:18;20.60;99.30
20911;DHT22;10615;42.702;23.314;2022-07-29T00:22:19;20.60;99.20
20911;DHT22;10615;42.702;23.314;2022-07-29T00:23:20;20.60;99.10
20911;DHT22;10615;42.702;23.314;2022-07-29T00:24:20;20.60;99.20
20911;DHT22;10615;42.702;23.314;2022-07-29T00:25:21;20.60;99.10
20911;DHT22;10615;42.702;23.314;2022-07-29T00:26:22;20.60;99.10
20911;DHT22;10615;42.702;23.314;2022-07-29T00:27:22;20.70;99.00
20911;DHT22;10615;42.702;23.314;2022-07-29T00:28:23;20.70;98.90
20911;DHT22;10615;42.702;23.314;2022-07-29T00:29:24;20.70;98.90
20911;DHT22;10615;42.702;23.314;2022-07-29T00:30:25;20.70;98.70
20911;DHT22;10615;42.702;23.314;2022-07-29T00:31:26;20.70;98.60
20911;DHT22;10615;42.702;23.314;2022-07-29T00:32:27;20.70;98.60
20911;DHT22;10615;42.702;23.314;2022-07-29T00:33:28;20.70;98.60
20911;DHT22;10615;42.702;23.314;2022-07-29T00:34:30;20.70;98.60
20911;DHT22;10615;42.702;23.314;2022-07-29T00:35:49;20.70;98.70
20911;DHT22;10615;42.702;23.314;2022-07-29T00:36:50;20.70;98.80
20911;DHT22;10615;42.702;23.314;2022-07-29T00:37:51;20.70;98.90
20911;DHT22;10615;42.702;23.314;2022-07-29T00:38:52;20.70;99.00
20911;DHT22;10615;42.702;23.314;2022-07-29T00:39:52;20.70;99.10
20911;DHT22;10615;42.702;23.314;2022-07-29T00:40:53;20.70;99.10
20911;DHT22;10615;42.702;23.314;2022-07-29T00:41:54;20.80;99.20
20911;DHT22;10615;42.702;23.314;2022-07-29T00:42:54;20.80;99.30
20911;DHT22;10615;42.702;23.314;2022-07-29T00:43:55;20.80;99.30
20911;DHT22;10615;42.702;23.314;2022-07-29T00:44:56;20.80;99.40
20911;DHT22;10615;42.702;23.314;2022-07-29T00:45:56;20.80;99.50
20911;DHT22;10615;42.702;23.314;2022-07-29T00:46:57;20.80;99.60
20911;DHT22;10615;42.702;23.314;2022-07-29T00:47:58;20.80;99.80
20911;DHT22;10615;42.702;23.314;2022-07-29T00:48:58;20.70;99.80
20911;DHT22;10615;42.702;23.314;2022-07-29T00:49:59;20.60;99.90
20911;DHT22;10615;42.702;23.314;2022-07-29T00:51:02;20.60;99.90
20911;DHT22;10615;42.702;23.314;2022-07-29T00:52:07;20.50;99.90
20911;DHT22;10615;42.702;23.314;2022-07-29T00:53:08;20.50;99.90
20911;DHT22;10615;42.702;23.314;2022-07-29T00:54:09;20.40;99.90
20911;DHT22;10615;42.702;23.314;2022-07-29T00:55:14;20.30;99.90
20911;DHT22;10615;42.702;23.314;2022-07-29T00:56:16;20.30;99.90
20911;DHT22;10615;42.702;23.314;2022-07-29T00:57:16;20.30;99.90
20911;DHT22;10615;42.702;23.314;2022-07-29T00:58:17;20.30;99.90
20911;DHT22;10615;42.702;23.314;2022-07-29T00:59:18;20.30;99.90
20911;DHT22;10615;42.702;23.314;2022-07-29T01:00:24;20.20;99.90
20911;DHT22;10615;42.702;23.314;2022-07-29T01:01:25;20.20;99.90
20911;DHT22;10615;42.702;23.314;2022-07-29T01:02:26;20.20;99.90
20911;DHT22;10615;42.702;23.314;2022-07-29T01:03:27;20.20;99.90
20911;DHT22;10615;42.702;23.314;2022-07-29T01:04:27;20.10;99.90
20911;DHT22;10615;42.702;23.314;2022-07-29T01:05:30;20.10;99.90
20911;DHT22;10615;42.702;23.314;2022-07-29T01:06:31;20.10;99.90
20911;DHT22;10615;42.702;23.314;2022-07-29T01:07:36;20.10;99.90
20911;DHT22;10615;42.702;23.314;2022-07-29T01:08:37;20.00;99.90
20911;DHT22;10615;42.702;23.314;2022-07-29T01:09:38;20.10;99.90
20911;DHT22;10615;42.702;23.314;2022-07-29T01:10:40;20.10;99.90
20911;DHT22;10615;42.702;23.314;2022-07-29T01:11:43;20.00;99.90
20911;DHT22;10615;42.702;23.314;2022-07-29T01:12:49;20.00;99.90
20911;DHT22;10615;42.702;23.314;2022-07-29T01:13:50;19.90;99.90
20911;DHT22;10615;42.702;23.314;2022-07-29T01:14:53;19.90;99.90
20911;DHT22;10615;42.702;23.314;2022-07-29T01:16:02;20.00;99.90
20911;DHT22;10615;42.702;23.314;2022-07-29T01:18:16;20.00;99.90
20911;DHT22;10615;42.702;23.314;2022-07-29T01:23:11;20.00;99.90
20911;DHT22;10615;42.702;23.314;2022-07-29T01:23:55;20.00;99.90
20911;DHT22;10615;42.702;23.314;2022-07-29T01:29:16;20.10;99.90
20911;DHT22;10615;42.702;23.314;2022-07-29T01:30:17;20.00;99.90
20911;DHT22;10615;42.702;23.314;2022-07-29T01:32:37;20.00;99.90
20911;DHT22;10615;42.702;23.314;2022-07-29T01:33:41;19.90;99.90
20911;DHT22;10615;42.702;23.314;2022-07-29T01:34:51;19.90;99.90
20911;DHT22;10615;42.702;23.314;2022-07-29T01:35:53;19.90;99.90
20911;DHT22;10615;42.702;23.314;2022-07-29T01:37:08;19.80;99.90
20911;DHT22;10615;42.702;23.314;2022-07-29T01:38:21;19.70;99.90
20911;DHT22;10615;42.702;23.314;2022-07-29T01:39:30;19.60;99.90
20911;DHT22;10615;42.702;23.314;2022-07-29T01:40:45;19.60;99.90
20911;DHT22;10615;42.702;23.314;2022-07-29T01:41:57;19.50;99.90
20911;DHT22;10615;42.702;23.314;2022-07-29T01:43:00;19.50;99.90
20911;DHT22;10615;42.702;23.314;2022-07-29T01:44:20;19.50;99.90
20911;DHT22;10615;42.702;23.314;2022-07-29T01:45:40;19.50;99.90
20911;DHT22;10615;42.702;23.314;2022-07-29T01:46:53;19.50;99.90
20911;DHT22;10615;42.702;23.314;2022-07-29T01:48:04;19.50;99.90
20911;DHT22;10615;42.702;23.314;2022-07-29T01:49:20;19.50;99.90
20911;DHT22;10615;42.702;23.314;2022-07-29T01:50:28;19.50;99.90
20911;DHT22;10615;42.702;23.314;2022-07-29T01:51:41;19.50;99.90
20911;DHT22;10615;42.702;23.314;2022-07-29T01:52:49;19.50;99.90
20911;DHT22;10615;42.702;23.314;2022-07-29T01:55:15;19.70;99.90
20911;DHT22;10615;42.702;23.314;2022-07-29T01:56:18;19.70;99.90
20911;DHT22;10615;42.702;23.314;2022-07-29T01:57:26;19.70;99.90
20911;DHT22;10615;42.702;23.314;2022-07-29T01:58:29;19.70;99.90
20911;DHT22;10615;42.702;23.314;2022-07-29T01:59:34;19.80;99.90
20911;DHT22;10615;42.702;23.314;2022-07-29T02:00:36;19.80;99.90
20911;DHT22;10615;42.702;23.314;2022-07-29T02:01:39;19.70;99.90
20911;DHT22;10615;42.702;23.314;2022-07-29T02:02:43;19.70;99.90
20911;DHT22;10615;42.702;23.314;2022-07-29T02:03:46;19.80;99.90
20911;DHT22;10615;42.702;23.314;2022-07-29T02:04:47;19.70;99.90
20911;DHT22;10615;42.702;23.314;2022-07-29T02:05:50;19.60;99.90
20911;DHT22;10615;42.702;23.314;2022-07-29T02:06:53;19.70;99.90
20911;DHT22;10615;42.702;23.314;2022-07-29T02:07:56;19.60;99.90
20911;DHT22;10615;42.702;23.314;2022-07-29T02:08:58;19.70;99.90
20911;DHT22;10615;42.702;23.314;2022-07-29T02:10:02;19.60;99.90
20911;DHT22;10615;42.702;23.314;2022-07-29T02:11:04;19.60;99.90
20911;DHT22;10615;42.702;23.314;2022-07-29T02:12:06;19.70;99.90
20911;DHT22;10615;42.702;23.314;2022-07-29T02:13:09;19.70;99.90
20911;DHT22;10615;42.702;23.314;2022-07-29T02:14:12;19.70;99.90
20911;DHT22;10615;42.702;23.314;2022-07-29T02:15:16;19.70;99.90
20911;DHT22;10615;42.702;23.314;2022-07-29T02:16:18;19.80;99.90
20911;DHT22;10615;42.702;23.314;2022-07-29T02:17:25;19.80;99.90
20911;DHT22;10615;42.702;23.314;2022-07-29T02:18:28;19.90;99.90
20911;DHT22;10615;42.702;23.314;2022-07-29T02:19:32;19.90;99.90
20911;DHT22;10615;42.702;23.314;2022-07-29T02:20:33;19.90;99.90
20911;DHT22;10615;42.702;23.314;2022-07-29T02:21:35;19.90;99.90
20911;DHT22;10615;42.702;23.314;2022-07-29T02:22:38;19.90;99.90
20911;DHT22;10615;42.702;23.314;2022-07-29T02:23:39;19.90;99.90
20911;DHT22;10615;42.702;23.314;2022-07-29T02:24:41;19.90;99.90
20911;DHT22;10615;42.702;23.314;2022-07-29T02:25:43;19.90;99.90
20911;DHT22;10615;42.702;23.314;2022-07-29T02:26:44;19.90;99.90
20911;DHT22;10615;42.702;23.314;2022-07-29T02:27:47;19.90;99.90
20911;DHT22;10615;42.702;23.314;2022-07-29T02:28:51;19.90;99.90
20911;DHT22;10615;42.702;23.314;2022-07-29T02:29:53;19.90;99.90
20911;DHT22;10615;42.702;23.314;2022-07-29T02:30:58;19.90;99.90
20911;DHT22;10615;42.702;23.314;2022-07-29T02:32:01;19.90;99.90
20911;DHT22;10615;42.702;23.314;2022-07-29T02:33:04;19.80;99.90
20911;DHT22;10615;42.702;23.314;2022-07-29T02:34:08;19.90;99.90
20911;DHT22;10615;42.702;23.314;2022-07-29T02:35:09;19.90;99.90
20911;DHT22;10615;42.702;23.314;2022-07-29T02:36:11;19.90;99.90
20911;DHT22;10615;42.702;23.314;2022-07-29T02:37:13;19.90;99.90
20911;DHT22;10615;42.702;23.314;2022-07-29T02:38:15;19.90;99.90
20911;DHT22;10615;42.702;23.314;2022-07-29T02:39:35;19.90;99.90
20911;DHT22;10615;42.702;23.314;2022-07-29T02:40:38;19.90;99.90
20911;DHT22;10615;42.702;23.314;2022-07-29T02:41:50;19.90;99.90
20911;DHT22;10615;42.702;23.314;2022-07-29T02:42:50;19.80;99.90
20911;DHT22;10615;42.702;23.314;2022-07-29T02:43:54;19.80;99.90
20911;DHT22;10615;42.702;23.314;2022-07-29T02:44:55;19.70;99.90
20911;DHT22;10615;42.702;23.314;2022-07-29T02:45:56;19.70;99.90
20911;DHT22;10615;42.702;23.314;2022-07-29T02:48:36;19.70;99.90
20911;DHT22;10615;42.702;23.314;2022-07-29T02:49:43;19.80;99.90
20911;DHT22;10615;42.702;23.314;2022-07-29T02:50:51;19.80;99.90
20911;DHT22;10615;42.702;23.314;2022-07-29T02:52:00;19.90;99.90
20911;DHT22;10615;42.702;23.314;2022-07-29T02:53:14;19.90;99.90
20911;DHT22;10615;42.702;23.314;2022-07-29T02:54:34;19.90;99.90
20911;DHT22;10615;42.702;23.314;2022-07-29T02:55:40;19.90;99.90
20911;DHT22;10615;42.702;23.314;2022-07-29T02:56:45;19.90;99.90
20911;DHT22;10615;42.702;23.314;2022-07-29T02:57:51;19.90;99.90
20911;DHT22;10615;42.702;23.314;2022-07-29T02:58:58;19.80;99.90
20911;DHT22;10615;42.702;23.314;2022-07-29T03:00:04;19.80;99.90
20911;DHT22;10615;42.702;23.314;2022-07-29T03:01:15;19.80;99.90
20911;DHT22;10615;42.702;23.314;2022-07-29T03:02:16;19.80;99.90
20911;DHT22;10615;42.702;23.314;2022-07-29T03:03:17;19.70;99.90
20911;DHT22;10615;42.702;23.314;2022-07-29T03:04:19;19.70;99.90
20911;DHT22;10615;42.702;23.314;2022-07-29T03:05:21;19.60;99.90
20911;DHT22;10615;42.702;23.314;2022-07-29T03:06:25;19.60;99.90
20911;DHT22;10615;42.702;23.314;2022-07-29T03:07:27;19.60;99.90
20911;DHT22;10615;42.702;23.314;2022-07-29T03:08:29;19.50;99.90
20911;DHT22;10615;42.702;23.314;2022-07-29T03:09:31;19.50;99.90
20911;DHT22;10615;42.702;23.314;2022-07-29T03:10:33;19.50;99.90
20911;DHT22;10615;42.702;23.314;2022-07-29T03:11:35;19.50;99.90
20911;DHT22;10615;42.702;23.314;2022-07-29T03:12:36;19.50;99.90
20911;DHT22;10615;42.702;23.314;2022-07-29T03:13:37;19.50;99.90
20911;DHT22;10615;42.702;23.314;2022-07-29T03:14:38;19.50;99.90
20911;DHT22;10615;42.702;23.314;2022-07-29T03:15:39;19.50;99.90
20911;DHT22;10615;42.702;23.314;2022-07-29T03:16:40;19.40;99.90
20911;DHT22;10615;42.702;23.314;2022-07-29T03:17:42;19.40;99.90
20911;DHT22;10615;42.702;23.314;2022-07-29T03:18:43;19.40;99.90
20911;DHT22;10615;42.702;23.314;2022-07-29T03:19:44;19.30;99.90
20911;DHT22;10615;42.702;23.314;2022-07-29T03:20:45;19.30;99.90
20911;DHT22;10615;42.702;23.314;2022-07-29T03:21:46;19.20;99.90
20911;DHT22;10615;42.702;23.314;2022-07-29T03:22:46;19.10;99.90
20911;DHT22;10615;42.702;23.314;2022-07-29T03:23:47;19.10;99.90
20911;DHT22;10615;42.702;23.314;2022-07-29T03:24:48;19.10;99.90
20911;DHT22;10615;42.702;23.314;2022-07-29T03:25:49;19.10;99.90
20911;DHT22;10615;42.702;23.314;2022-07-29T03:26:50;19.10;99.90
20911;DHT22;10615;42.702;23.314;2022-07-29T03:27:51;19.10;99.90
20911;DHT22;10615;42.702;23.314;2022-07-29T03:28:51;19.10;99.90
20911;DHT22;10615;42.702;23.314;2022-07-29T03:29:52;19.10;99.90
20911;DHT22;10615;42.702;23.314;2022-07-29T03:30:53;19.10;99.90
20911;DHT22;10615;42.702;23.314;2022-07-29T03:31:54;19.10;99.90
20911;DHT22;10615;42.702;23.314;2022-07-29T03:32:55;19.10;99.90
20911;DHT22;10615;42.702;23.314;2022-07-29T03:33:56;19.10;99.90
20911;DHT22;10615;42.702;23.314;2022-07-29T03:34:57;19.00;99.90
20911;DHT22;10615;42.702;23.314;2022-07-29T03:35:58;19.00;99.90
20911;DHT22;10615;42.702;23.314;2022-07-29T03:36:59;19.00;99.90
20911;DHT22;10615;42.702;23.314;2022-07-29T03:38:00;19.00;99.90
20911;DHT22;10615;42.702;23.314;2022-07-29T03:39:02;19.00;99.90
20911;DHT22;10615;42.702;23.314;2022-07-29T03:40:06;19.00;99.90
20911;DHT22;10615;42.702;23.314;2022-07-29T03:41:10;19.00;99.90
20911;DHT22;10615;42.702;23.314;2022-07-29T03:42:13;19.00;99.90
20911;DHT22;10615;42.702;23.314;2022-07-29T03:43:17;19.00;99.90
20911;DHT22;10615;42.702;23.314;2022-07-29T03:44:21;19.10;99.90
20911;DHT22;10615;42.702;23.314;2022-07-29T03:45:22;19.10;99.90
20911;DHT22;10615;42.702;23.314;2022-07-29T03:46:26;19.20;99.90
20911;DHT22;10615;42.702;23.314;2022-07-29T03:47:30;19.30;99.90
20911;DHT22;10615;42.702;23.314;2022-07-29T03:48:33;19.30;99.90
20911;DHT22;10615;42.702;23.314;2022-07-29T03:49:36;19.40;99.90
20911;DHT22;10615;42.702;23.314;2022-07-29T03:50:38;19.40;99.90
20911;DHT22;10615;42.702;23.314;2022-07-29T03:51:39;19.40;99.90
20911;DHT22;10615;42.702;23.314;2022-07-29T03:52:40;19.40;99.90
20911;DHT22;10615;42.702;23.314;2022-07-29T03:53:41;19.40;99.90
20911;DHT22;10615;42.702;23.314;2022-07-29T03:54:42;19.50;99.90
20911;DHT22;10615;42.702;23.314;2022-07-29T03:55:45;19.70;99.90
20911;DHT22;10615;42.702;23.314;2022-07-29T03:56:48;19.90;99.90
20911;DHT22;10615;42.702;23.314;2022-07-29T03:57:52;20.10;99.90
20911;DHT22;10615;42.702;23.314;2022-07-29T03:58:53;20.30;99.90
20911;DHT22;10615;42.702;23.314;2022-07-29T03:59:55;20.60;99.90
20911;DHT22;10615;42.702;23.314;2022-07-29T04:00:56;21.00;99.90
20911;DHT22;10615;42.702;23.314;2022-07-29T04:01:58;21.50;99.90
20911;DHT22;10615;42.702;23.314;2022-07-29T04:02:59;22.00;99.90
20911;DHT22;10615;42.702;23.314;2022-07-29T04:04:01;22.40;99.90
20911;DHT22;10615;42.702;23.314;2022-07-29T04:05:03;22.80;98.60
20911;DHT22;10615;42.702;23.314;2022-07-29T04:06:06;23.20;96.80
20911;DHT22;10615;42.702;23.314;2022-07-29T04:07:07;23.60;94.80
20911;DHT22;10615;42.702;23.314;2022-07-29T04:08:11;24.00;93.10
20911;DHT22;10615;42.702;23.314;2022-07-29T04:09:12;24.50;91.20
20911;DHT22;10615;42.702;23.314;2022-07-29T04:10:14;25.00;89.20
20911;DHT22;10615;42.702;23.314;2022-07-29T04:11:16;25.40;85.70
20911;DHT22;10615;42.702;23.314;2022-07-29T04:12:17;25.80;83.00
20911;DHT22;10615;42.702;23.314;2022-07-29T04:13:19;26.20;80.30
20911;DHT22;10615;42.702;23.314;2022-07-29T04:14:20;26.50;77.80
20911;DHT22;10615;42.702;23.314;2022-07-29T04:15:20;27.00;75.70
20911;DHT22;10615;42.702;23.314;2022-07-29T04:16:21;27.30;73.70
20911;DHT22;10615;42.702;23.314;2022-07-29T04:17:22;27.70;72.10
20911;DHT22;10615;42.702;23.314;2022-07-29T04:18:22;28.10;70.40
20911;DHT22;10615;42.702;23.314;2022-07-29T04:19:23;28.40;68.50
20911;DHT22;10615;42.702;23.314;2022-07-29T04:20:24;28.50;66.50
20911;DHT22;10615;42.702;23.314;2022-07-29T04:21:25;28.50;65.20
20911;DHT22;10615;42.702;23.314;2022-07-29T04:22:25;28.60;64.50
20911;DHT22;10615;42.702;23.314;2022-07-29T04:23:27;28.80;63.70
20911;DHT22;10615;42.702;23.314;2022-07-29T04:24:29;29.00;62.50
20911;DHT22;10615;42.702;23.314;2022-07-29T04:25:30;29.00;61.50
20911;DHT22;10615;42.702;23.314;2022-07-29T04:26:31;29.30;61.10
20911;DHT22;10615;42.702;23.314;2022-07-29T04:27:31;29.50;60.30
20911;DHT22;10615;42.702;23.314;2022-07-29T04:28:32;29.70;59.90
20911;DHT22;10615;42.702;23.314;2022-07-29T04:29:33;30.20;59.30
20911;DHT22;10615;42.702;23.314;2022-07-29T04:30:34;30.30;57.80
20911;DHT22;10615;42.702;23.314;2022-07-29T04:31:35;30.30;57.20
20911;DHT22;10615;42.702;23.314;2022-07-29T04:32:36;30.40;56.90
20911;DHT22;10615;42.702;23.314;2022-07-29T04:34:38;31.10;55.30
20911;DHT22;10615;42.702;23.314;2022-07-29T04:35:38;31.30;55.30
20911;DHT22;10615;42.702;23.314;2022-07-29T04:36:39;31.50;54.60
20911;DHT22;10615;42.702;23.314;2022-07-29T04:37:40;32.00;54.20
20911;DHT22;10615;42.702;23.314;2022-07-29T04:38:40;32.50;53.20
20911;DHT22;10615;42.702;23.314;2022-07-29T04:39:41;32.80;52.80
20911;DHT22;10615;42.702;23.314;2022-07-29T04:40:42;32.80;51.10
20911;DHT22;10615;42.702;23.314;2022-07-29T04:41:42;32.90;50.80
20911;DHT22;10615;42.702;23.314;2022-07-29T04:42:43;33.30;50.40
20911;DHT22;10615;42.702;23.314;2022-07-29T04:43:44;33.80;49.60
20911;DHT22;10615;42.702;23.314;2022-07-29T04:44:44;34.00;49.00
20911;DHT22;10615;42.702;23.314;2022-07-29T04:45:45;34.40;48.60
20911;DHT22;10615;42.702;23.314;2022-07-29T04:46:48;34.80;48.00
20911;DHT22;10615;42.702;23.314;2022-07-29T04:47:50;35.10;47.00
20911;DHT22;10615;42.702;23.314;2022-07-29T04:48:51;35.00;46.20
20911;DHT22;10615;42.702;23.314;2022-07-29T04:49:52;35.20;46.10
20911;DHT22;10615;42.702;23.314;2022-07-29T04:50:53;35.50;45.70
20911;DHT22;10615;42.702;23.314;2022-07-29T04:51:53;36.20;45.10
20911;DHT22;10615;42.702;23.314;2022-07-29T04:52:54;36.60;44.10
20911;DHT22;10615;42.702;23.314;2022-07-29T04:53:55;37.00;42.70
20911;DHT22;10615;42.702;23.314;2022-07-29T04:54:55;37.30;42.40
20911;DHT22;10615;42.702;23.314;2022-07-29T04:55:56;37.50;41.80
20911;DHT22;10615;42.702;23.314;2022-07-29T04:56:57;38.00;41.50
20911;DHT22;10615;42.702;23.314;2022-07-29T04:57:57;38.50;40.80
20911;DHT22;10615;42.702;23.314;2022-07-29T04:58:58;39.10;40.10
20911;DHT22;10615;42.702;23.314;2022-07-29T04:59:59;39.70;39.40
20911;DHT22;10615;42.702;23.314;2022-07-29T05:01:00;40.40;38.40
20911;DHT22;10615;42.702;23.314;2022-07-29T05:02:00;40.70;36.30
20911;DHT22;10615;42.702;23.314;2022-07-29T05:03:01;41.10;36.70
20911;DHT22;10615;42.702;23.314;2022-07-29T05:04:02;41.50;35.90
20911;DHT22;10615;42.702;23.314;2022-07-29T05:05:03;41.20;35.20
20911;DHT22;10615;42.702;23.314;2022-07-29T05:06:03;40.40;34.80
20911;DHT22;10615;42.702;23.314;2022-07-29T05:07:04;40.20;34.80
20911;DHT22;10615;42.702;23.314;2022-07-29T05:08:05;40.10;35.00
20911;DHT22;10615;42.702;23.314;2022-07-29T05:09:05;40.40;35.30
20911;DHT22;10615;42.702;23.314;2022-07-29T05:10:06;40.70;35.20
20911;DHT22;10615;42.702;23.314;2022-07-29T05:11:07;41.20;34.90
20911;DHT22;10615;42.702;23.314;2022-07-29T05:12:08;41.50;34.20
20911;DHT22;10615;42.702;23.314;2022-07-29T05:13:10;41.80;33.90
20911;DHT22;10615;42.702;23.314;2022-07-29T05:14:10;42.00;33.40
20911;DHT22;10615;42.702;23.314;2022-07-29T05:15:11;42.40;33.30
20911;DHT22;10615;42.702;23.314;2022-07-29T05:16:12;42.60;32.70
20911;DHT22;10615;42.702;23.314;2022-07-29T05:17:13;42.20;32.20
20911;DHT22;10615;42.702;23.314;2022-07-29T05:18:13;41.80;32.40
20911;DHT22;10615;42.702;23.314;2022-07-29T05:19:14;41.40;32.40
20911;DHT22;10615;42.702;23.314;2022-07-29T05:20:15;41.10;32.40
20911;DHT22;10615;42.702;23.314;2022-07-29T05:21:15;40.80;32.70
20911;DHT22;10615;42.702;23.314;2022-07-29T05:22:17;40.40;33.10
20911;DHT22;10615;42.702;23.314;2022-07-29T05:23:18;39.80;33.50
20911;DHT22;10615;42.702;23.314;2022-07-29T05:24:19;38.70;34.20
20911;DHT22;10615;42.702;23.314;2022-07-29T05:25:20;37.80;35.50
20911;DHT22;10615;42.702;23.314;2022-07-29T05:26:20;37.00;36.90
20911;DHT22;10615;42.702;23.314;2022-07-29T05:27:21;36.40;38.10
20911;DHT22;10615;42.702;23.314;2022-07-29T05:28:23;35.80;39.00
20911;DHT22;10615;42.702;23.314;2022-07-29T05:29:24;34.90;40.10
20911;DHT22;10615;42.702;23.314;2022-07-29T05:30:24;34.30;41.40
20911;DHT22;10615;42.702;23.314;2022-07-29T05:31:25;33.90;42.40
20911;DHT22;10615;42.702;23.314;2022-07-29T05:32:26;33.70;43.10
20911;DHT22;10615;42.702;23.314;2022-07-29T05:33:27;33.20;44.60
20911;DHT22;10615;42.702;23.314;2022-07-29T05:34:27;33.60;44.30
20911;DHT22;10615;42.702;23.314;2022-07-29T05:35:28;33.90;44.50
20911;DHT22;10615;42.702;23.314;2022-07-29T05:36:29;34.50;43.90
20911;DHT22;10615;42.702;23.314;2022-07-29T05:37:29;35.40;43.10
20911;DHT22;10615;42.702;23.314;2022-07-29T05:38:30;36.30;42.10
20911;DHT22;10615;42.702;23.314;2022-07-29T05:39:31;36.90;40.30
20911;DHT22;10615;42.702;23.314;2022-07-29T05:40:31;37.20;39.60
20911;DHT22;10615;42.702;23.314;2022-07-29T05:41:32;37.90;39.20
20911;DHT22;10615;42.702;23.314;2022-07-29T05:42:33;37.80;38.20
20911;DHT22;10615;42.702;23.314;2022-07-29T05:43:34;38.00;37.80
20911;DHT22;10615;42.702;23.314;2022-07-29T05:44:39;37.60;37.40
20911;DHT22;10615;42.702;23.314;2022-07-29T05:45:39;37.50;37.80
20911;DHT22;10615;42.702;23.314;2022-07-29T05:46:40;37.70;38.10
20911;DHT22;10615;42.702;23.314;2022-07-29T05:47:41;38.50;37.90
20911;DHT22;10615;42.702;23.314;2022-07-29T05:48:41;39.40;37.10
20911;DHT22;10615;42.702;23.314;2022-07-29T05:49:42;40.50;36.20
20911;DHT22;10615;42.702;23.314;2022-07-29T05:50:43;41.60;34.90
20911;DHT22;10615;42.702;23.314;2022-07-29T05:51:44;42.60;33.70
20911;DHT22;10615;42.702;23.314;2022-07-29T05:52:44;43.80;32.40
20911;DHT22;10615;42.702;23.314;2022-07-29T05:53:45;43.90;30.60
20911;DHT22;10615;42.702;23.314;2022-07-29T05:54:46;43.70;30.00
20911;DHT22;10615;42.702;23.314;2022-07-29T05:55:48;43.40;29.90
20911;DHT22;10615;42.702;23.314;2022-07-29T05:56:49;43.10;30.00
20911;DHT22;10615;42.702;23.314;2022-07-29T05:57:52;43.60;30.20
20911;DHT22;10615;42.702;23.314;2022-07-29T05:58:53;44.40;30.10
20911;DHT22;10615;42.702;23.314;2022-07-29T05:59:53;46.00;28.60
20911;DHT22;10615;42.702;23.314;2022-07-29T06:00:54;45.90;29.00
20911;DHT22;10615;42.702;23.314;2022-07-29T06:01:59;46.60;28.60
20911;DHT22;10615;42.702;23.314;2022-07-29T06:03:00;47.40;27.30
20911;DHT22;10615;42.702;23.314;2022-07-29T06:04:00;47.90;27.50
20911;DHT22;10615;42.702;23.314;2022-07-29T06:05:02;48.30;26.90
20911;DHT22;10615;42.702;23.314;2022-07-29T06:06:03;48.70;26.50
20911;DHT22;10615;42.702;23.314;2022-07-29T06:07:04;48.70;25.90
20911;DHT22;10615;42.702;23.314;2022-07-29T06:08:05;48.90;25.70
20911;DHT22;10615;42.702;23.314;2022-07-29T06:09:07;49.10;25.40
20911;DHT22;10615;42.702;23.314;2022-07-29T06:10:08;49.20;25.30
20911;DHT22;10615;42.702;23.314;2022-07-29T06:11:09;49.40;25.20
20911;DHT22;10615;42.702;23.314;2022-07-29T06:12:10;49.80;25.00
20911;DHT22;10615;42.702;23.314;2022-07-29T06:13:11;50.20;24.80
20911;DHT22;10615;42.702;23.314;2022-07-29T06:14:12;50.00;24.50
20911;DHT22;10615;42.702;23.314;2022-07-29T06:15:12;50.30;24.60
20911;DHT22;10615;42.702;23.314;2022-07-29T06:16:13;50.60;24.30
20911;DHT22;10615;42.702;23.314;2022-07-29T06:17:16;50.60;23.90
20911;DHT22;10615;42.702;23.314;2022-07-29T06:18:16;50.00;24.40
20911;DHT22;10615;42.702;23.314;2022-07-29T06:19:17;49.40;23.90
20911;DHT22;10615;42.702;23.314;2022-07-29T06:20:18;49.20;24.30
20911;DHT22;10615;42.702;23.314;2022-07-29T06:21:19;49.20;24.50
20911;DHT22;10615;42.702;23.314;2022-07-29T06:22:20;49.00;24.30
20911;DHT22;10615;42.702;23.314;2022-07-29T06:23:21;48.10;24.60
20911;DHT22;10615;42.702;23.314;2022-07-29T06:24:22;48.20;25.10
20911;DHT22;10615;42.702;23.314;2022-07-29T06:25:22;48.50;25.10
20911;DHT22;10615;42.702;23.314;2022-07-29T06:26:23;48.50;25.00
20911;DHT22;10615;42.702;23.314;2022-07-29T06:27:24;48.30;24.90
20911;DHT22;10615;42.702;23.314;2022-07-29T06:28:24;48.30;25.00
20911;DHT22;10615;42.702;23.314;2022-07-29T06:29:25;48.50;25.10
20911;DHT22;10615;42.702;23.314;2022-07-29T06:30:26;49.20;25.00
20911;DHT22;10615;42.702;23.314;2022-07-29T06:31:27;49.60;24.60
20911;DHT22;10615;42.702;23.314;2022-07-29T06:32:27;50.00;24.30
20911;DHT22;10615;42.702;23.314;2022-07-29T06:33:28;49.50;23.80
20911;DHT22;10615;42.702;23.314;2022-07-29T06:34:29;48.60;24.00
20911;DHT22;10615;42.702;23.314;2022-07-29T06:35:30;48.00;24.60
20911;DHT22;10615;42.702;23.314;2022-07-29T06:36:33;47.90;24.90
20911;DHT22;10615;42.702;23.314;2022-07-29T06:37:34;47.60;25.20
20911;DHT22;10615;42.702;23.314;2022-07-29T06:38:35;47.20;25.40
20911;DHT22;10615;42.702;23.314;2022-07-29T06:39:36;47.40;25.40
20911;DHT22;10615;42.702;23.314;2022-07-29T06:40:36;47.40;25.60
20911;DHT22;10615;42.702;23.314;2022-07-29T06:41:59;47.60;25.70